sensor_id;sensor_type;location;lat;lon;timestamp;P1;durP1;ratioP1;P2;durP2;ratioP2
76540;SDS011;65385;55.772;37.658;2024-03-02T00:00:40;48.15;;;23.70;;
76540;SDS011;65385;55.772;37.658;2024-03-02T00:01:41;52.08;;;24.08;;
76540;SDS011;65385;55.772;37.658;2024-03-02T00:02:42;54.70;;;26.33;;
76540;SDS011;65385;55.772;37.658;2024-03-02T00:03:44;59.90;;;24.35;;
76540;SDS011;65385;55.772;37.658;2024-03-02T00:04:45;54.88;;;25.33;;
76540;SDS011;65385;55.772;37.658;2024-03-02T00:05:49;50.53;;;24.58;;
76540;SDS011;65385;55.772;37.658;2024-03-02T00:06:52;52.95;;;24.88;;
76540;SDS011;65385;55.772;37.658;2024-03-02T00:07:55;57.50;;;27.80;;
76540;SDS011;65385;55.772;37.658;2024-03-02T00:08:58;64.07;;;26.27;;
76540;SDS011;65385;55.772;37.658;2024-03-02T00:09:59;54.70;;;26.45;;
76540;SDS011;65385;55.772;37.658;2024-03-02T00:11:01;49.20;;;23.50;;
76540;SDS011;65385;55.772;37.658;2024-03-02T00:12:03;54.88;;;26.33;;
76540;SDS011;65385;55.772;37.658;2024-03-02T00:13:08;53.30;;;24.98;;
76540;SDS011;65385;55.772;37.658;2024-03-02T00:14:09;51.97;;;25.05;;
76540;SDS011;65385;55.772;37.658;2024-03-02T00:15:55;51.67;;;23.00;;
76540;SDS011;65385;55.772;37.658;2024-03-02T00:16:33;58.70;;;24.90;;
76540;SDS011;65385;55.772;37.658;2024-03-02T00:17:34;54.33;;;24.17;;
76540;SDS011;65385;55.772;37.658;2024-03-02T00:18:35;50.40;;;25.15;;
76540;SDS011;65385;55.772;37.658;2024-03-02T00:19:38;53.05;;;24.10;;
76540;SDS011;65385;55.772;37.658;2024-03-02T00:20:40;51.72;;;25.58;;
76540;SDS011;65385;55.772;37.658;2024-03-02T00:21:41;54.30;;;24.48;;
76540;SDS011;65385;55.772;37.658;2024-03-02T00:22:41;52.25;;;24.52;;
76540;SDS011;65385;55.772;37.658;2024-03-02T00:23:42;54.63;;;25.17;;
76540;SDS011;65385;55.772;37.658;2024-03-02T00:24:43;58.10;;;25.73;;
76540;SDS011;65385;55.772;37.658;2024-03-02T00:25:44;52.40;;;25.15;;
76540;SDS011;65385;55.772;37.658;2024-03-02T00:26:48;50.05;;;24.60;;
76540;SDS011;65385;55.772;37.658;2024-03-02T00:27:49;58.28;;;24.60;;
76540;SDS011;65385;55.772;37.658;2024-03-02T00:28:54;54.28;;;26.55;;
76540;SDS011;65385;55.772;37.658;2024-03-02T00:29:57;60.45;;;28.50;;
76540;SDS011;65385;55.772;37.658;2024-03-02T00:30:58;55.38;;;24.55;;
76540;SDS011;65385;55.772;37.658;2024-03-02T00:32:02;52.38;;;25.70;;
76540;SDS011;65385;55.772;37.658;2024-03-02T00:33:06;56.55;;;25.45;;
76540;SDS011;65385;55.772;37.658;2024-03-02T00:34:07;55.22;;;24.38;;
76540;SDS011;65385;55.772;37.658;2024-03-02T00:35:08;53.22;;;24.75;;
76540;SDS011;65385;55.772;37.658;2024-03-02T00:36:11;53.60;;;26.02;;
76540;SDS011;65385;55.772;37.658;2024-03-02T00:37:13;57.88;;;24.52;;
76540;SDS011;65385;55.772;37.658;2024-03-02T00:38:14;59.90;;;23.40;;
76540;SDS011;65385;55.772;37.658;2024-03-02T00:39:16;61.92;;;26.35;;
76540;SDS011;65385;55.772;37.658;2024-03-02T00:40:18;57.58;;;25.58;;
76540;SDS011;65385;55.772;37.658;2024-03-02T00:42:24;51.72;;;28.13;;
76540;SDS011;65385;55.772;37.658;2024-03-02T00:44:44;52.78;;;26.33;;
76540;SDS011;65385;55.772;37.658;2024-03-02T00:45:44;54.97;;;25.42;;
76540;SDS011;65385;55.772;37.658;2024-03-02T00:46:45;57.45;;;29.13;;
76540;SDS011;65385;55.772;37.658;2024-03-02T00:47:46;54.65;;;24.85;;
76540;SDS011;65385;55.772;37.658;2024-03-02T00:48:51;59.30;;;25.65;;
76540;SDS011;65385;55.772;37.658;2024-03-02T00:49:56;60.72;;;29.23;;
76540;SDS011;65385;55.772;37.658;2024-03-02T00:50:57;58.28;;;25.50;;
76540;SDS011;65385;55.772;37.658;2024-03-02T00:51:57;57.47;;;27.08;;
76540;SDS011;65385;55.772;37.658;2024-03-02T00:52:59;57.40;;;25.73;;
76540;SDS011;65385;55.772;37.658;2024-03-02T00:54:01;58.80;;;25.50;;
76540;SDS011;65385;55.772;37.658;2024-03-02T00:55:04;56.95;;;25.27;;
76540;SDS011;65385;55.772;37.658;2024-03-02T00:56:07;57.10;;;28.90;;
76540;SDS011;65385;55.772;37.658;2024-03-02T00:57:10;57.75;;;26.70;;
76540;SDS011;65385;55.772;37.658;2024-03-02T00:58:12;64.72;;;27.98;;
76540;SDS011;65385;55.772;37.658;2024-03-02T00:59:13;54.15;;;26.77;;
76540;SDS011;65385;55.772;37.658;2024-03-02T01:00:14;55.40;;;26.58;;
76540;SDS011;65385;55.772;37.658;2024-03-02T01:01:16;49.53;;;25.10;;
76540;SDS011;65385;55.772;37.658;2024-03-02T01:02:17;58.70;;;26.40;;
76540;SDS011;65385;55.772;37.658;2024-03-02T01:03:20;54.70;;;24.98;;
76540;SDS011;65385;55.772;37.658;2024-03-02T01:04:21;55.53;;;24.67;;
76540;SDS011;65385;55.772;37.658;2024-03-02T01:05:21;64.80;;;26.58;;
76540;SDS011;65385;55.772;37.658;2024-03-02T01:06:22;52.38;;;23.05;;
76540;SDS011;65385;55.772;37.658;2024-03-02T01:07:23;57.72;;;25.73;;
76540;SDS011;65385;55.772;37.658;2024-03-02T01:08:24;52.63;;;24.52;;
76540;SDS011;65385;55.772;37.658;2024-03-02T01:09:25;60.70;;;28.65;;
76540;SDS011;65385;55.772;37.658;2024-03-02T01:10:26;55.70;;;25.40;;
76540;SDS011;65385;55.772;37.658;2024-03-02T01:11:27;56.50;;;26.33;;
76540;SDS011;65385;55.772;37.658;2024-03-02T01:12:27;58.75;;;27.55;;
76540;SDS011;65385;55.772;37.658;2024-03-02T01:13:28;56.90;;;27.25;;
76540;SDS011;65385;55.772;37.658;2024-03-02T01:14:29;59.90;;;27.05;;
76540;SDS011;65385;55.772;37.658;2024-03-02T01:15:30;57.40;;;26.63;;
76540;SDS011;65385;55.772;37.658;2024-03-02T01:16:30;53.92;;;25.92;;
76540;SDS011;65385;55.772;37.658;2024-03-02T01:17:31;56.75;;;27.85;;
76540;SDS011;65385;55.772;37.658;2024-03-02T01:18:32;60.00;;;25.48;;
76540;SDS011;65385;55.772;37.658;2024-03-02T01:19:32;61.10;;;28.13;;
76540;SDS011;65385;55.772;37.658;2024-03-02T01:20:33;53.10;;;27.98;;
76540;SDS011;65385;55.772;37.658;2024-03-02T01:21:34;56.35;;;25.67;;
76540;SDS011;65385;55.772;37.658;2024-03-02T01:22:34;54.78;;;25.38;;
76540;SDS011;65385;55.772;37.658;2024-03-02T01:23:36;57.15;;;25.42;;
76540;SDS011;65385;55.772;37.658;2024-03-02T01:24:36;59.53;;;27.40;;
76540;SDS011;65385;55.772;37.658;2024-03-02T01:25:37;54.45;;;25.77;;
76540;SDS011;65385;55.772;37.658;2024-03-02T01:26:38;57.85;;;28.02;;
76540;SDS011;65385;55.772;37.658;2024-03-02T01:27:38;63.83;;;29.52;;
76540;SDS011;65385;55.772;37.658;2024-03-02T01:28:39;56.75;;;26.27;;
76540;SDS011;65385;55.772;37.658;2024-03-02T01:29:40;57.65;;;26.65;;
76540;SDS011;65385;55.772;37.658;2024-03-02T01:30:40;51.58;;;24.40;;
76540;SDS011;65385;55.772;37.658;2024-03-02T01:31:41;51.72;;;24.02;;
76540;SDS011;65385;55.772;37.658;2024-03-02T01:32:45;50.40;;;26.40;;
76540;SDS011;65385;55.772;37.658;2024-03-02T01:33:46;51.72;;;25.55;;
76540;SDS011;65385;55.772;37.658;2024-03-02T01:34:47;53.40;;;24.50;;
76540;SDS011;65385;55.772;37.658;2024-03-02T01:35:47;50.33;;;24.65;;
76540;SDS011;65385;55.772;37.658;2024-03-02T01:36:48;48.60;;;23.83;;
76540;SDS011;65385;55.772;37.658;2024-03-02T01:37:49;55.63;;;26.08;;
76540;SDS011;65385;55.772;37.658;2024-03-02T01:38:49;60.42;;;27.98;;
76540;SDS011;65385;55.772;37.658;2024-03-02T01:39:50;58.45;;;26.00;;
76540;SDS011;65385;55.772;37.658;2024-03-02T01:40:50;48.80;;;23.67;;
76540;SDS011;65385;55.772;37.658;2024-03-02T01:41:52;55.75;;;25.15;;
76540;SDS011;65385;55.772;37.658;2024-03-02T01:42:53;50.40;;;24.38;;
76540;SDS011;65385;55.772;37.658;2024-03-02T01:43:59;57.25;;;25.95;;
76540;SDS011;65385;55.772;37.658;2024-03-02T01:44:59;58.05;;;27.95;;
76540;SDS011;65385;55.772;37.658;2024-03-02T01:46:00;49.13;;;24.02;;
76540;SDS011;65385;55.772;37.658;2024-03-02T01:47:00;52.42;;;26.17;;
76540;SDS011;65385;55.772;37.658;2024-03-02T01:48:01;48.95;;;23.35;;
76540;SDS011;65385;55.772;37.658;2024-03-02T01:49:02;50.92;;;23.70;;
76540;SDS011;65385;55.772;37.658;2024-03-02T01:50:03;54.40;;;26.70;;
76540;SDS011;65385;55.772;37.658;2024-03-02T01:51:04;57.72;;;26.83;;
76540;SDS011;65385;55.772;37.658;2024-03-02T01:52:07;51.60;;;23.33;;
76540;SDS011;65385;55.772;37.658;2024-03-02T01:53:07;48.75;;;24.73;;
76540;SDS011;65385;55.772;37.658;2024-03-02T01:54:09;53.95;;;24.77;;
76540;SDS011;65385;55.772;37.658;2024-03-02T01:55:09;49.67;;;25.65;;
76540;SDS011;65385;55.772;37.658;2024-03-02T01:56:12;53.63;;;22.83;;
76540;SDS011;65385;55.772;37.658;2024-03-02T01:57:13;50.65;;;24.50;;
76540;SDS011;65385;55.772;37.658;2024-03-02T01:58:14;50.88;;;24.10;;
76540;SDS011;65385;55.772;37.658;2024-03-02T01:59:14;52.95;;;23.02;;
76540;SDS011;65385;55.772;37.658;2024-03-02T02:00:15;49.58;;;24.95;;
76540;SDS011;65385;55.772;37.658;2024-03-02T02:01:16;52.00;;;25.98;;
76540;SDS011;65385;55.772;37.658;2024-03-02T02:02:17;64.10;;;27.25;;
76540;SDS011;65385;55.772;37.658;2024-03-02T02:03:18;57.30;;;24.58;;
76540;SDS011;65385;55.772;37.658;2024-03-02T02:04:18;56.05;;;26.08;;
76540;SDS011;65385;55.772;37.658;2024-03-02T02:05:21;64.10;;;32.45;;
76540;SDS011;65385;55.772;37.658;2024-03-02T02:06:22;73.18;;;32.38;;
76540;SDS011;65385;55.772;37.658;2024-03-02T02:07:23;62.42;;;31.60;;
76540;SDS011;65385;55.772;37.658;2024-03-02T02:08:24;69.38;;;31.50;;
76540;SDS011;65385;55.772;37.658;2024-03-02T02:09:25;53.67;;;26.67;;
76540;SDS011;65385;55.772;37.658;2024-03-02T02:10:25;54.35;;;26.83;;
76540;SDS011;65385;55.772;37.658;2024-03-02T02:11:26;49.38;;;26.38;;
76540;SDS011;65385;55.772;37.658;2024-03-02T02:12:27;56.60;;;26.63;;
76540;SDS011;65385;55.772;37.658;2024-03-02T02:13:27;52.08;;;25.85;;
76540;SDS011;65385;55.772;37.658;2024-03-02T02:14:28;55.65;;;28.48;;
76540;SDS011;65385;55.772;37.658;2024-03-02T02:15:29;52.75;;;28.10;;
76540;SDS011;65385;55.772;37.658;2024-03-02T02:16:31;56.22;;;26.70;;
76540;SDS011;65385;55.772;37.658;2024-03-02T02:17:31;50.33;;;25.15;;
76540;SDS011;65385;55.772;37.658;2024-03-02T02:18:32;53.28;;;26.90;;
76540;SDS011;65385;55.772;37.658;2024-03-02T02:19:33;53.63;;;26.67;;
76540;SDS011;65385;55.772;37.658;2024-03-02T02:20:33;56.50;;;26.23;;
76540;SDS011;65385;55.772;37.658;2024-03-02T02:21:34;53.85;;;27.55;;
76540;SDS011;65385;55.772;37.658;2024-03-02T02:22:35;53.78;;;25.80;;
76540;SDS011;65385;55.772;37.658;2024-03-02T02:23:36;55.88;;;28.00;;
76540;SDS011;65385;55.772;37.658;2024-03-02T02:24:43;55.45;;;26.55;;
76540;SDS011;65385;55.772;37.658;2024-03-02T02:25:44;48.67;;;25.20;;
76540;SDS011;65385;55.772;37.658;2024-03-02T02:26:44;53.55;;;26.20;;
76540;SDS011;65385;55.772;37.658;2024-03-02T02:27:45;54.08;;;25.85;;
76540;SDS011;65385;55.772;37.658;2024-03-02T02:28:45;51.35;;;27.08;;
76540;SDS011;65385;55.772;37.658;2024-03-02T02:29:49;56.90;;;28.00;;
76540;SDS011;65385;55.772;37.658;2024-03-02T02:30:49;50.78;;;25.95;;
76540;SDS011;65385;55.772;37.658;2024-03-02T02:31:50;49.72;;;25.08;;
76540;SDS011;65385;55.772;37.658;2024-03-02T02:32:51;51.35;;;25.42;;
76540;SDS011;65385;55.772;37.658;2024-03-02T02:33:51;56.88;;;26.70;;
76540;SDS011;65385;55.772;37.658;2024-03-02T02:34:52;54.72;;;27.25;;
76540;SDS011;65385;55.772;37.658;2024-03-02T02:35:53;56.28;;;25.85;;
76540;SDS011;65385;55.772;37.658;2024-03-02T02:36:53;52.30;;;25.63;;
76540;SDS011;65385;55.772;37.658;2024-03-02T02:37:55;56.45;;;26.60;;
76540;SDS011;65385;55.772;37.658;2024-03-02T02:38:57;56.80;;;24.55;;
76540;SDS011;65385;55.772;37.658;2024-03-02T02:39:58;51.75;;;25.73;;
76540;SDS011;65385;55.772;37.658;2024-03-02T02:40:59;53.53;;;25.90;;
76540;SDS011;65385;55.772;37.658;2024-03-02T02:41:59;49.88;;;25.42;;
76540;SDS011;65385;55.772;37.658;2024-03-02T02:43:01;55.03;;;25.80;;
76540;SDS011;65385;55.772;37.658;2024-03-02T02:44:02;56.70;;;27.20;;
76540;SDS011;65385;55.772;37.658;2024-03-02T02:45:02;56.47;;;25.73;;
76540;SDS011;65385;55.772;37.658;2024-03-02T02:46:04;53.65;;;27.50;;
76540;SDS011;65385;55.772;37.658;2024-03-02T02:47:05;54.67;;;28.70;;
76540;SDS011;65385;55.772;37.658;2024-03-02T02:48:06;53.22;;;26.75;;
76540;SDS011;65385;55.772;37.658;2024-03-02T02:49:07;56.40;;;26.27;;
76540;SDS011;65385;55.772;37.658;2024-03-02T02:50:08;55.30;;;26.52;;
76540;SDS011;65385;55.772;37.658;2024-03-02T02:51:09;54.03;;;26.17;;
76540;SDS011;65385;55.772;37.658;2024-03-02T02:52:09;53.78;;;26.65;;
76540;SDS011;65385;55.772;37.658;2024-03-02T02:53:10;55.20;;;27.42;;
76540;SDS011;65385;55.772;37.658;2024-03-02T02:54:10;55.33;;;27.85;;
76540;SDS011;65385;55.772;37.658;2024-03-02T02:55:12;56.55;;;27.23;;
76540;SDS011;65385;55.772;37.658;2024-03-02T02:56:14;51.72;;;26.60;;
76540;SDS011;65385;55.772;37.658;2024-03-02T02:57:14;55.97;;;27.63;;
76540;SDS011;65385;55.772;37.658;2024-03-02T02:58:15;52.08;;;26.25;;
76540;SDS011;65385;55.772;37.658;2024-03-02T02:59:16;51.78;;;27.33;;
76540;SDS011;65385;55.772;37.658;2024-03-02T03:00:16;59.60;;;26.10;;
76540;SDS011;65385;55.772;37.658;2024-03-02T03:01:19;54.75;;;26.08;;
76540;SDS011;65385;55.772;37.658;2024-03-02T03:02:19;57.55;;;27.83;;
76540;SDS011;65385;55.772;37.658;2024-03-02T03:03:20;56.45;;;27.83;;
76540;SDS011;65385;55.772;37.658;2024-03-02T03:04:21;53.72;;;28.25;;
76540;SDS011;65385;55.772;37.658;2024-03-02T03:05:21;56.53;;;28.38;;
76540;SDS011;65385;55.772;37.658;2024-03-02T03:06:22;50.50;;;25.23;;
76540;SDS011;65385;55.772;37.658;2024-03-02T03:07:23;56.08;;;28.13;;
76540;SDS011;65385;55.772;37.658;2024-03-02T03:08:23;54.88;;;26.70;;
76540;SDS011;65385;55.772;37.658;2024-03-02T03:09:24;57.85;;;29.48;;
76540;SDS011;65385;55.772;37.658;2024-03-02T03:10:25;65.05;;;29.25;;
76540;SDS011;65385;55.772;37.658;2024-03-02T03:11:27;57.88;;;26.60;;
76540;SDS011;65385;55.772;37.658;2024-03-02T03:12:28;56.50;;;28.40;;
76540;SDS011;65385;55.772;37.658;2024-03-02T03:13:29;58.47;;;30.40;;
76540;SDS011;65385;55.772;37.658;2024-03-02T03:14:30;56.65;;;27.00;;
76540;SDS011;65385;55.772;37.658;2024-03-02T03:15:30;54.85;;;27.33;;
76540;SDS011;65385;55.772;37.658;2024-03-02T03:16:31;61.28;;;30.10;;
76540;SDS011;65385;55.772;37.658;2024-03-02T03:17:32;53.90;;;27.27;;
76540;SDS011;65385;55.772;37.658;2024-03-02T03:18:32;58.20;;;28.48;;
76540;SDS011;65385;55.772;37.658;2024-03-02T03:19:33;51.88;;;26.33;;
76540;SDS011;65385;55.772;37.658;2024-03-02T03:20:34;56.63;;;26.45;;
76540;SDS011;65385;55.772;37.658;2024-03-02T03:21:34;58.85;;;29.13;;
76540;SDS011;65385;55.772;37.658;2024-03-02T03:22:35;56.78;;;28.90;;
76540;SDS011;65385;55.772;37.658;2024-03-02T03:23:36;56.20;;;26.90;;
76540;SDS011;65385;55.772;37.658;2024-03-02T03:24:37;52.47;;;24.15;;
76540;SDS011;65385;55.772;37.658;2024-03-02T03:25:38;57.85;;;27.42;;
76540;SDS011;65385;55.772;37.658;2024-03-02T03:26:38;59.58;;;26.83;;
76540;SDS011;65385;55.772;37.658;2024-03-02T03:27:39;52.50;;;26.73;;
76540;SDS011;65385;55.772;37.658;2024-03-02T03:28:40;62.97;;;28.73;;
76540;SDS011;65385;55.772;37.658;2024-03-02T03:29:40;58.13;;;27.80;;
76540;SDS011;65385;55.772;37.658;2024-03-02T03:30:41;52.75;;;27.13;;
76540;SDS011;65385;55.772;37.658;2024-03-02T03:31:41;57.10;;;26.15;;
76540;SDS011;65385;55.772;37.658;2024-03-02T03:32:42;54.05;;;25.17;;
76540;SDS011;65385;55.772;37.658;2024-03-02T03:33:43;55.80;;;28.83;;
76540;SDS011;65385;55.772;37.658;2024-03-02T03:34:43;56.17;;;26.13;;
76540;SDS011;65385;55.772;37.658;2024-03-02T03:35:44;56.88;;;28.42;;
76540;SDS011;65385;55.772;37.658;2024-03-02T03:36:44;50.70;;;27.20;;
76540;SDS011;65385;55.772;37.658;2024-03-02T03:37:45;59.42;;;28.38;;
76540;SDS011;65385;55.772;37.658;2024-03-02T03:38:46;54.72;;;29.45;;
76540;SDS011;65385;55.772;37.658;2024-03-02T03:39:46;52.35;;;27.50;;
76540;SDS011;65385;55.772;37.658;2024-03-02T03:40:47;65.13;;;27.63;;
76540;SDS011;65385;55.772;37.658;2024-03-02T03:41:48;57.28;;;27.58;;
76540;SDS011;65385;55.772;37.658;2024-03-02T03:42:48;63.40;;;28.13;;
76540;SDS011;65385;55.772;37.658;2024-03-02T03:43:50;58.28;;;26.98;;
76540;SDS011;65385;55.772;37.658;2024-03-02T03:44:52;59.42;;;27.73;;
76540;SDS011;65385;55.772;37.658;2024-03-02T03:45:52;56.25;;;29.60;;
76540;SDS011;65385;55.772;37.658;2024-03-02T03:46:53;54.55;;;25.85;;
76540;SDS011;65385;55.772;37.658;2024-03-02T03:47:54;57.38;;;29.45;;
76540;SDS011;65385;55.772;37.658;2024-03-02T03:48:55;50.67;;;24.85;;
76540;SDS011;65385;55.772;37.658;2024-03-02T03:49:56;57.17;;;28.80;;
76540;SDS011;65385;55.772;37.658;2024-03-02T03:50:57;56.03;;;29.05;;
76540;SDS011;65385;55.772;37.658;2024-03-02T03:51:58;64.45;;;30.67;;
76540;SDS011;65385;55.772;37.658;2024-03-02T03:52:58;57.65;;;28.50;;
76540;SDS011;65385;55.772;37.658;2024-03-02T03:53:59;63.92;;;29.75;;
76540;SDS011;65385;55.772;37.658;2024-03-02T03:55:00;59.13;;;28.90;;
76540;SDS011;65385;55.772;37.658;2024-03-02T03:56:00;65.72;;;31.55;;
76540;SDS011;65385;55.772;37.658;2024-03-02T03:57:01;61.53;;;28.67;;
76540;SDS011;65385;55.772;37.658;2024-03-02T03:58:02;54.03;;;28.65;;
76540;SDS011;65385;55.772;37.658;2024-03-02T03:59:03;57.60;;;27.50;;
76540;SDS011;65385;55.772;37.658;2024-03-02T04:00:05;60.28;;;28.80;;
76540;SDS011;65385;55.772;37.658;2024-03-02T04:01:13;59.70;;;29.20;;
76540;SDS011;65385;55.772;37.658;2024-03-02T04:02:14;59.97;;;29.63;;
76540;SDS011;65385;55.772;37.658;2024-03-02T04:03:15;68.18;;;31.00;;
76540;SDS011;65385;55.772;37.658;2024-03-02T04:04:15;63.03;;;31.08;;
76540;SDS011;65385;55.772;37.658;2024-03-02T04:05:16;67.30;;;31.00;;
76540;SDS011;65385;55.772;37.658;2024-03-02T04:06:16;59.17;;;28.52;;
76540;SDS011;65385;55.772;37.658;2024-03-02T04:07:17;59.33;;;28.00;;
76540;SDS011;65385;55.772;37.658;2024-03-02T04:08:18;57.90;;;27.17;;
76540;SDS011;65385;55.772;37.658;2024-03-02T04:09:19;59.63;;;27.67;;
76540;SDS011;65385;55.772;37.658;2024-03-02T04:10:19;62.00;;;29.95;;
76540;SDS011;65385;55.772;37.658;2024-03-02T04:11:21;57.83;;;29.02;;
76540;SDS011;65385;55.772;37.658;2024-03-02T04:12:22;61.67;;;28.90;;
76540;SDS011;65385;55.772;37.658;2024-03-02T04:13:22;57.90;;;29.77;;
76540;SDS011;65385;55.772;37.658;2024-03-02T04:14:23;61.70;;;29.52;;
76540;SDS011;65385;55.772;37.658;2024-03-02T04:15:23;60.67;;;30.70;;
76540;SDS011;65385;55.772;37.658;2024-03-02T04:16:24;62.88;;;30.27;;
76540;SDS011;65385;55.772;37.658;2024-03-02T04:17:25;63.63;;;30.95;;
76540;SDS011;65385;55.772;37.658;2024-03-02T04:18:25;65.97;;;31.90;;
76540;SDS011;65385;55.772;37.658;2024-03-02T04:19:26;61.70;;;31.75;;
76540;SDS011;65385;55.772;37.658;2024-03-02T04:20:26;61.75;;;29.50;;
76540;SDS011;65385;55.772;37.658;2024-03-02T04:21:27;61.58;;;30.27;;
76540;SDS011;65385;55.772;37.658;2024-03-02T04:22:28;63.22;;;31.23;;
76540;SDS011;65385;55.772;37.658;2024-03-02T04:23:28;65.53;;;31.70;;
76540;SDS011;65385;55.772;37.658;2024-03-02T04:24:29;67.03;;;29.77;;
76540;SDS011;65385;55.772;37.658;2024-03-02T04:25:30;55.28;;;29.52;;
76540;SDS011;65385;55.772;37.658;2024-03-02T04:26:31;68.38;;;33.42;;
76540;SDS011;65385;55.772;37.658;2024-03-02T04:27:31;60.40;;;30.52;;
76540;SDS011;65385;55.772;37.658;2024-03-02T04:28:33;63.05;;;30.65;;
76540;SDS011;65385;55.772;37.658;2024-03-02T04:29:34;66.65;;;32.40;;
76540;SDS011;65385;55.772;37.658;2024-03-02T04:30:34;67.78;;;30.50;;
76540;SDS011;65385;55.772;37.658;2024-03-02T04:31:35;65.00;;;31.65;;
76540;SDS011;65385;55.772;37.658;2024-03-02T04:32:36;69.13;;;30.20;;
76540;SDS011;65385;55.772;37.658;2024-03-02T04:33:36;66.88;;;32.13;;
76540;SDS011;65385;55.772;37.658;2024-03-02T04:34:37;63.55;;;29.20;;
76540;SDS011;65385;55.772;37.658;2024-03-02T04:35:37;59.38;;;30.75;;
76540;SDS011;65385;55.772;37.658;2024-03-02T04:36:38;64.38;;;32.47;;
76540;SDS011;65385;55.772;37.658;2024-03-02T04:37:38;64.18;;;34.28;;
76540;SDS011;65385;55.772;37.658;2024-03-02T04:38:39;64.68;;;32.78;;
76540;SDS011;65385;55.772;37.658;2024-03-02T04:39:40;70.22;;;34.28;;
76540;SDS011;65385;55.772;37.658;2024-03-02T04:40:41;68.38;;;33.42;;
76540;SDS011;65385;55.772;37.658;2024-03-02T04:41:41;68.72;;;33.63;;
76540;SDS011;65385;55.772;37.658;2024-03-02T04:42:42;67.63;;;31.83;;
76540;SDS011;65385;55.772;37.658;2024-03-02T04:43:43;71.10;;;33.75;;
76540;SDS011;65385;55.772;37.658;2024-03-02T04:44:43;68.32;;;33.35;;
76540;SDS011;65385;55.772;37.658;2024-03-02T04:45:44;65.28;;;33.25;;
76540;SDS011;65385;55.772;37.658;2024-03-02T04:46:45;65.78;;;33.75;;
76540;SDS011;65385;55.772;37.658;2024-03-02T04:47:45;68.00;;;33.60;;
76540;SDS011;65385;55.772;37.658;2024-03-02T04:48:46;69.07;;;35.55;;
76540;SDS011;65385;55.772;37.658;2024-03-02T04:49:46;72.95;;;33.63;;
76540;SDS011;65385;55.772;37.658;2024-03-02T04:50:47;64.28;;;32.10;;
76540;SDS011;65385;55.772;37.658;2024-03-02T04:51:48;68.25;;;34.38;;
76540;SDS011;65385;55.772;37.658;2024-03-02T04:52:48;65.78;;;30.20;;
76540;SDS011;65385;55.772;37.658;2024-03-02T04:53:49;62.78;;;33.53;;
76540;SDS011;65385;55.772;37.658;2024-03-02T04:54:49;85.85;;;36.50;;
76540;SDS011;65385;55.772;37.658;2024-03-02T04:56:08;69.55;;;38.80;;
76540;SDS011;65385;55.772;37.658;2024-03-02T04:57:38;83.20;;;41.35;;
76540;SDS011;65385;55.772;37.658;2024-03-02T04:58:38;100.60;;;52.80;;
76540;SDS011;65385;55.772;37.658;2024-03-02T04:59:39;90.13;;;47.85;;
76540;SDS011;65385;55.772;37.658;2024-03-02T05:00:39;91.22;;;45.50;;
76540;SDS011;65385;55.772;37.658;2024-03-02T05:01:40;93.85;;;45.20;;
76540;SDS011;65385;55.772;37.658;2024-03-02T05:02:40;94.70;;;48.22;;
76540;SDS011;65385;55.772;37.658;2024-03-02T05:03:41;104.35;;;49.63;;
76540;SDS011;65385;55.772;37.658;2024-03-02T05:04:42;92.38;;;47.15;;
76540;SDS011;65385;55.772;37.658;2024-03-02T05:05:42;105.93;;;53.53;;
76540;SDS011;65385;55.772;37.658;2024-03-02T05:06:43;104.05;;;48.65;;
76540;SDS011;65385;55.772;37.658;2024-03-02T05:07:44;97.90;;;48.67;;
76540;SDS011;65385;55.772;37.658;2024-03-02T05:08:45;91.85;;;52.38;;
76540;SDS011;65385;55.772;37.658;2024-03-02T05:09:45;97.63;;;49.50;;
76540;SDS011;65385;55.772;37.658;2024-03-02T05:10:48;105.63;;;54.47;;
76540;SDS011;65385;55.772;37.658;2024-03-02T05:11:49;107.72;;;57.00;;
76540;SDS011;65385;55.772;37.658;2024-03-02T05:13:04;108.60;;;54.08;;
76540;SDS011;65385;55.772;37.658;2024-03-02T05:14:05;103.97;;;56.20;;
76540;SDS011;65385;55.772;37.658;2024-03-02T05:15:06;112.05;;;57.15;;
76540;SDS011;65385;55.772;37.658;2024-03-02T05:16:10;109.40;;;57.88;;
76540;SDS011;65385;55.772;37.658;2024-03-02T05:17:11;115.70;;;60.33;;
76540;SDS011;65385;55.772;37.658;2024-03-02T05:18:12;114.63;;;60.13;;
76540;SDS011;65385;55.772;37.658;2024-03-02T05:19:13;105.90;;;54.65;;
76540;SDS011;65385;55.772;37.658;2024-03-02T05:20:13;109.97;;;56.35;;
76540;SDS011;65385;55.772;37.658;2024-03-02T05:21:14;103.10;;;54.00;;
76540;SDS011;65385;55.772;37.658;2024-03-02T05:22:14;110.50;;;55.20;;
76540;SDS011;65385;55.772;37.658;2024-03-02T05:23:15;100.47;;;50.22;;
76540;SDS011;65385;55.772;37.658;2024-03-02T05:24:16;103.85;;;56.75;;
76540;SDS011;65385;55.772;37.658;2024-03-02T05:25:16;101.25;;;53.28;;
76540;SDS011;65385;55.772;37.658;2024-03-02T05:26:17;104.18;;;52.17;;
76540;SDS011;65385;55.772;37.658;2024-03-02T05:27:18;92.53;;;48.90;;
76540;SDS011;65385;55.772;37.658;2024-03-02T05:28:18;96.60;;;52.33;;
76540;SDS011;65385;55.772;37.658;2024-03-02T05:29:19;99.65;;;50.05;;
76540;SDS011;65385;55.772;37.658;2024-03-02T05:30:20;97.70;;;51.10;;
76540;SDS011;65385;55.772;37.658;2024-03-02T05:31:21;98.70;;;52.22;;
76540;SDS011;65385;55.772;37.658;2024-03-02T05:32:21;95.88;;;50.00;;
76540;SDS011;65385;55.772;37.658;2024-03-02T05:33:22;96.57;;;48.58;;
76540;SDS011;65385;55.772;37.658;2024-03-02T05:34:23;102.10;;;48.60;;
76540;SDS011;65385;55.772;37.658;2024-03-02T05:35:23;87.60;;;45.00;;
76540;SDS011;65385;55.772;37.658;2024-03-02T05:36:24;93.05;;;50.17;;
76540;SDS011;65385;55.772;37.658;2024-03-02T05:37:24;99.80;;;49.28;;
76540;SDS011;65385;55.772;37.658;2024-03-02T05:38:25;101.68;;;48.58;;
76540;SDS011;65385;55.772;37.658;2024-03-02T05:39:26;90.35;;;46.80;;
76540;SDS011;65385;55.772;37.658;2024-03-02T05:40:26;84.20;;;46.45;;
76540;SDS011;65385;55.772;37.658;2024-03-02T05:41:27;87.22;;;49.15;;
76540;SDS011;65385;55.772;37.658;2024-03-02T05:42:28;93.18;;;47.95;;
76540;SDS011;65385;55.772;37.658;2024-03-02T05:43:28;106.88;;;49.75;;
76540;SDS011;65385;55.772;37.658;2024-03-02T05:44:29;91.68;;;46.10;;
76540;SDS011;65385;55.772;37.658;2024-03-02T05:45:30;93.32;;;48.13;;
76540;SDS011;65385;55.772;37.658;2024-03-02T05:46:30;101.53;;;49.17;;
76540;SDS011;65385;55.772;37.658;2024-03-02T05:47:31;96.30;;;50.38;;
76540;SDS011;65385;55.772;37.658;2024-03-02T05:48:33;89.13;;;45.17;;
76540;SDS011;65385;55.772;37.658;2024-03-02T05:49:34;103.45;;;48.38;;
76540;SDS011;65385;55.772;37.658;2024-03-02T05:50:35;100.97;;;51.00;;
76540;SDS011;65385;55.772;37.658;2024-03-02T05:51:35;108.30;;;54.38;;
76540;SDS011;65385;55.772;37.658;2024-03-02T05:52:36;101.13;;;55.33;;
76540;SDS011;65385;55.772;37.658;2024-03-02T05:53:37;108.90;;;52.88;;
76540;SDS011;65385;55.772;37.658;2024-03-02T05:54:38;104.60;;;52.88;;
76540;SDS011;65385;55.772;37.658;2024-03-02T05:55:39;110.65;;;52.38;;